sensor_id;sensor_type;location;lat;lon;timestamp;temperature;humidity
54898;DHT22;40800;52.704;6.398;2022-08-21T00:00:13;14.40;99.90
54898;DHT22;40800;52.704;6.398;2022-08-21T00:02:44;14.40;99.90
54898;DHT22;40800;52.704;6.398;2022-08-21T00:05:10;14.50;99.90
54898;DHT22;40800;52.704;6.398;2022-08-21T00:07:35;14.50;99.90
54898;DHT22;40800;52.704;6.398;2022-08-21T00:10:00;14.70;99.90
54898;DHT22;40800;52.704;6.398;2022-08-21T00:12:26;14.70;99.90
54898;DHT22;40800;52.704;6.398;2022-08-21T00:14:52;14.60;99.90
54898;DHT22;40800;52.704;6.398;2022-08-21T00:17:18;14.70;99.90
54898;DHT22;40800;52.704;6.398;2022-08-21T00:19:43;14.60;99.90
54898;DHT22;40800;52.704;6.398;2022-08-21T00:22:09;14.40;99.90
54898;DHT22;40800;52.704;6.398;2022-08-21T00:24:35;14.50;99.90
54898;DHT22;40800;52.704;6.398;2022-08-21T00:27:00;14.50;99.90
54898;DHT22;40800;52.704;6.398;2022-08-21T00:29:26;14.30;99.90
54898;DHT22;40800;52.704;6.398;2022-08-21T00:31:52;14.20;99.90
54898;DHT22;40800;52.704;6.398;2022-08-21T00:34:17;14.50;99.90
54898;DHT22;40800;52.704;6.398;2022-08-21T00:36:43;14.50;99.90
54898;DHT22;40800;52.704;6.398;2022-08-21T00:39:09;14.40;99.90
54898;DHT22;40800;52.704;6.398;2022-08-21T00:41:35;13.90;99.90
54898;DHT22;40800;52.704;6.398;2022-08-21T00:44:02;14.20;99.90
54898;DHT22;40800;52.704;6.398;2022-08-21T00:46:27;14.00;99.90
54898;DHT22;40800;52.704;6.398;2022-08-21T00:48:53;14.10;99.90
54898;DHT22;40800;52.704;6.398;2022-08-21T00:51:20;14.30;99.90
54898;DHT22;40800;52.704;6.398;2022-08-21T00:53:55;14.10;99.90
54898;DHT22;40800;52.704;6.398;2022-08-21T00:56:22;14.00;99.90
54898;DHT22;40800;52.704;6.398;2022-08-21T00:58:48;14.00;99.90
54898;DHT22;40800;52.704;6.398;2022-08-21T01:01:14;13.90;99.90
54898;DHT22;40800;52.704;6.398;2022-08-21T01:03:39;13.90;99.90
54898;DHT22;40800;52.704;6.398;2022-08-21T01:06:05;13.90;99.90
54898;DHT22;40800;52.704;6.398;2022-08-21T01:08:31;13.90;99.90
54898;DHT22;40800;52.704;6.398;2022-08-21T01:10:57;13.90;99.90
54898;DHT22;40800;52.704;6.398;2022-08-21T01:13:24;13.80;99.90
54898;DHT22;40800;52.704;6.398;2022-08-21T01:15:51;13.80;99.90
54898;DHT22;40800;52.704;6.398;2022-08-21T01:18:18;14.50;99.90
54898;DHT22;40800;52.704;6.398;2022-08-21T01:23:15;13.80;99.90
54898;DHT22;40800;52.704;6.398;2022-08-21T01:25:40;13.80;99.90
54898;DHT22;40800;52.704;6.398;2022-08-21T01:28:12;14.30;99.90
54898;DHT22;40800;52.704;6.398;2022-08-21T01:30:38;13.80;99.90
54898;DHT22;40800;52.704;6.398;2022-08-21T01:33:04;13.80;99.90
54898;DHT22;40800;52.704;6.398;2022-08-21T01:35:30;13.80;99.90
54898;DHT22;40800;52.704;6.398;2022-08-21T01:37:55;14.20;99.90
54898;DHT22;40800;52.704;6.398;2022-08-21T01:40:21;13.80;99.90
54898;DHT22;40800;52.704;6.398;2022-08-21T01:42:46;13.60;99.90
54898;DHT22;40800;52.704;6.398;2022-08-21T01:45:12;13.90;99.90
54898;DHT22;40800;52.704;6.398;2022-08-21T01:47:38;13.60;99.90
54898;DHT22;40800;52.704;6.398;2022-08-21T01:50:05;13.60;99.90
54898;DHT22;40800;52.704;6.398;2022-08-21T01:52:30;13.60;99.90
54898;DHT22;40800;52.704;6.398;2022-08-21T01:54:56;13.40;99.90
54898;DHT22;40800;52.704;6.398;2022-08-21T01:57:22;15.00;99.90
54898;DHT22;40800;52.704;6.398;2022-08-21T01:59:47;14.30;99.90
54898;DHT22;40800;52.704;6.398;2022-08-21T02:02:13;14.70;99.90
54898;DHT22;40800;52.704;6.398;2022-08-21T02:04:38;13.30;99.90
54898;DHT22;40800;52.704;6.398;2022-08-21T02:07:04;13.60;99.90
54898;DHT22;40800;52.704;6.398;2022-08-21T02:09:29;13.60;99.90
54898;DHT22;40800;52.704;6.398;2022-08-21T02:11:55;13.60;99.90
54898;DHT22;40800;52.704;6.398;2022-08-21T02:14:21;13.60;99.90
54898;DHT22;40800;52.704;6.398;2022-08-21T02:16:47;15.40;99.90
54898;DHT22;40800;52.704;6.398;2022-08-21T02:19:13;15.00;99.90
54898;DHT22;40800;52.704;6.398;2022-08-21T02:21:39;15.30;99.90
54898;DHT22;40800;52.704;6.398;2022-08-21T02:24:05;13.70;99.90
54898;DHT22;40800;52.704;6.398;2022-08-21T02:26:31;13.80;99.90
54898;DHT22;40800;52.704;6.398;2022-08-21T02:28:57;14.30;99.90
54898;DHT22;40800;52.704;6.398;2022-08-21T02:31:22;13.90;99.90
54898;DHT22;40800;52.704;6.398;2022-08-21T02:33:48;13.80;99.90
54898;DHT22;40800;52.704;6.398;2022-08-21T02:36:13;13.80;99.90
54898;DHT22;40800;52.704;6.398;2022-08-21T02:38:39;13.80;99.90
54898;DHT22;40800;52.704;6.398;2022-08-21T02:41:07;13.50;99.90
54898;DHT22;40800;52.704;6.398;2022-08-21T02:43:33;13.40;99.90
54898;DHT22;40800;52.704;6.398;2022-08-21T02:45:59;13.40;99.90
54898;DHT22;40800;52.704;6.398;2022-08-21T02:48:26;14.20;99.90
54898;DHT22;40800;52.704;6.398;2022-08-21T02:50:54;14.70;99.90
54898;DHT22;40800;52.704;6.398;2022-08-21T02:53:20;13.30;99.90
54898;DHT22;40800;52.704;6.398;2022-08-21T02:55:46;13.40;99.90
54898;DHT22;40800;52.704;6.398;2022-08-21T02:58:13;13.40;99.90
54898;DHT22;40800;52.704;6.398;2022-08-21T03:00:39;13.80;99.90
54898;DHT22;40800;52.704;6.398;2022-08-21T03:03:05;13.10;99.90
54898;DHT22;40800;52.704;6.398;2022-08-21T03:05:31;13.40;99.90
54898;DHT22;40800;52.704;6.398;2022-08-21T03:07:58;14.10;99.90
54898;DHT22;40800;52.704;6.398;2022-08-21T03:10:24;13.20;99.90
54898;DHT22;40800;52.704;6.398;2022-08-21T03:12:50;13.20;99.90
54898;DHT22;40800;52.704;6.398;2022-08-21T03:15:19;12.90;99.90
54898;DHT22;40800;52.704;6.398;2022-08-21T03:17:45;13.20;99.90
54898;DHT22;40800;52.704;6.398;2022-08-21T03:20:12;13.20;99.90
54898;DHT22;40800;52.704;6.398;2022-08-21T03:22:37;13.50;99.90
54898;DHT22;40800;52.704;6.398;2022-08-21T03:25:03;13.70;99.90
54898;DHT22;40800;52.704;6.398;2022-08-21T03:27:29;13.00;99.90
54898;DHT22;40800;52.704;6.398;2022-08-21T03:29:56;14.70;99.90
54898;DHT22;40800;52.704;6.398;2022-08-21T03:32:22;13.50;99.90
54898;DHT22;40800;52.704;6.398;2022-08-21T03:34:47;13.20;99.90
54898;DHT22;40800;52.704;6.398;2022-08-21T03:37:13;14.00;99.90
54898;DHT22;40800;52.704;6.398;2022-08-21T03:39:39;13.00;99.90
54898;DHT22;40800;52.704;6.398;2022-08-21T03:42:04;13.00;99.90
54898;DHT22;40800;52.704;6.398;2022-08-21T03:44:31;13.10;99.90
54898;DHT22;40800;52.704;6.398;2022-08-21T03:46:57;13.40;99.90
54898;DHT22;40800;52.704;6.398;2022-08-21T03:49:23;13.00;99.90
54898;DHT22;40800;52.704;6.398;2022-08-21T03:51:48;13.50;99.90
54898;DHT22;40800;52.704;6.398;2022-08-21T03:54:14;12.80;99.90
54898;DHT22;40800;52.704;6.398;2022-08-21T03:56:39;13.50;99.90
54898;DHT22;40800;52.704;6.398;2022-08-21T03:59:05;12.80;99.90
54898;DHT22;40800;52.704;6.398;2022-08-21T04:01:31;12.70;99.90
54898;DHT22;40800;52.704;6.398;2022-08-21T04:03:56;12.90;99.90
54898;DHT22;40800;52.704;6.398;2022-08-21T04:06:22;13.50;99.90
54898;DHT22;40800;52.704;6.398;2022-08-21T04:08:47;13.30;99.90
54898;DHT22;40800;52.704;6.398;2022-08-21T04:11:13;12.60;99.90
54898;DHT22;40800;52.704;6.398;2022-08-21T04:13:40;12.60;99.90
54898;DHT22;40800;52.704;6.398;2022-08-21T04:16:06;12.50;99.90
54898;DHT22;40800;52.704;6.398;2022-08-21T04:18:31;12.50;99.90
54898;DHT22;40800;52.704;6.398;2022-08-21T04:20:58;13.80;99.90
54898;DHT22;40800;52.704;6.398;2022-08-21T04:23:24;12.70;99.90
54898;DHT22;40800;52.704;6.398;2022-08-21T04:25:50;12.60;99.90
54898;DHT22;40800;52.704;6.398;2022-08-21T04:28:16;14.20;99.90
54898;DHT22;40800;52.704;6.398;2022-08-21T04:30:41;13.70;99.90
54898;DHT22;40800;52.704;6.398;2022-08-21T04:33:07;12.40;99.90
54898;DHT22;40800;52.704;6.398;2022-08-21T04:35:32;13.80;99.90
54898;DHT22;40800;52.704;6.398;2022-08-21T04:37:58;13.90;99.90
54898;DHT22;40800;52.704;6.398;2022-08-21T04:40:24;12.40;99.90
54898;DHT22;40800;52.704;6.398;2022-08-21T04:42:54;12.40;99.90
54898;DHT22;40800;52.704;6.398;2022-08-21T04:45:24;12.30;99.90
54898;DHT22;40800;52.704;6.398;2022-08-21T04:47:51;12.60;99.90
54898;DHT22;40800;52.704;6.398;2022-08-21T04:50:17;12.40;99.90
54898;DHT22;40800;52.704;6.398;2022-08-21T04:52:42;12.80;99.90
54898;DHT22;40800;52.704;6.398;2022-08-21T04:55:08;14.30;99.90
54898;DHT22;40800;52.704;6.398;2022-08-21T04:57:34;12.50;99.90
54898;DHT22;40800;52.704;6.398;2022-08-21T05:00:00;12.70;99.90
54898;DHT22;40800;52.704;6.398;2022-08-21T05:02:26;14.00;99.90
54898;DHT22;40800;52.704;6.398;2022-08-21T05:04:52;12.70;99.90
54898;DHT22;40800;52.704;6.398;2022-08-21T05:07:19;13.60;99.90
54898;DHT22;40800;52.704;6.398;2022-08-21T05:09:45;12.50;99.90
54898;DHT22;40800;52.704;6.398;2022-08-21T05:12:11;12.90;99.90
54898;DHT22;40800;52.704;6.398;2022-08-21T05:14:37;12.90;99.90
54898;DHT22;40800;52.704;6.398;2022-08-21T05:17:02;12.90;99.90
54898;DHT22;40800;52.704;6.398;2022-08-21T05:19:29;13.00;99.90
54898;DHT22;40800;52.704;6.398;2022-08-21T05:21:55;14.50;99.90
54898;DHT22;40800;52.704;6.398;2022-08-21T05:24:20;13.20;99.90
54898;DHT22;40800;52.704;6.398;2022-08-21T05:26:46;14.90;99.90
54898;DHT22;40800;52.704;6.398;2022-08-21T05:29:12;13.20;99.90
54898;DHT22;40800;52.704;6.398;2022-08-21T05:31:38;13.90;99.90
54898;DHT22;40800;52.704;6.398;2022-08-21T05:34:04;13.60;99.90
54898;DHT22;40800;52.704;6.398;2022-08-21T05:36:29;14.10;99.90
54898;DHT22;40800;52.704;6.398;2022-08-21T05:38:55;13.60;99.90
54898;DHT22;40800;52.704;6.398;2022-08-21T05:41:20;14.40;99.90
54898;DHT22;40800;52.704;6.398;2022-08-21T05:43:46;13.90;99.90
54898;DHT22;40800;52.704;6.398;2022-08-21T05:46:11;13.70;99.90
54898;DHT22;40800;52.704;6.398;2022-08-21T05:48:37;14.10;99.90
54898;DHT22;40800;52.704;6.398;2022-08-21T05:51:07;14.10;99.90
54898;DHT22;40800;52.704;6.398;2022-08-21T05:53:33;14.30;99.90
54898;DHT22;40800;52.704;6.398;2022-08-21T05:55:59;16.20;99.90
54898;DHT22;40800;52.704;6.398;2022-08-21T05:58:25;14.30;99.90
54898;DHT22;40800;52.704;6.398;2022-08-21T06:00:51;14.50;99.90
54898;DHT22;40800;52.704;6.398;2022-08-21T06:03:18;14.50;99.90
54898;DHT22;40800;52.704;6.398;2022-08-21T06:05:44;14.80;99.90
54898;DHT22;40800;52.704;6.398;2022-08-21T06:08:10;14.70;99.90
54898;DHT22;40800;52.704;6.398;2022-08-21T06:10:36;14.80;99.90
54898;DHT22;40800;52.704;6.398;2022-08-21T06:13:02;15.10;99.90
54898;DHT22;40800;52.704;6.398;2022-08-21T06:15:27;15.10;99.90
54898;DHT22;40800;52.704;6.398;2022-08-21T06:17:53;15.10;99.90
54898;DHT22;40800;52.704;6.398;2022-08-21T06:20:19;15.20;99.90
54898;DHT22;40800;52.704;6.398;2022-08-21T06:22:44;15.50;99.90
54898;DHT22;40800;52.704;6.398;2022-08-21T06:25:10;15.40;99.90
54898;DHT22;40800;52.704;6.398;2022-08-21T06:27:36;15.60;99.90
54898;DHT22;40800;52.704;6.398;2022-08-21T06:30:02;15.50;99.90
54898;DHT22;40800;52.704;6.398;2022-08-21T06:32:27;15.70;99.90
54898;DHT22;40800;52.704;6.398;2022-08-21T06:34:53;15.90;99.90
54898;DHT22;40800;52.704;6.398;2022-08-21T06:37:18;16.70;99.90
54898;DHT22;40800;52.704;6.398;2022-08-21T06:39:44;16.50;99.90
54898;DHT22;40800;52.704;6.398;2022-08-21T06:42:13;16.30;99.90
54898;DHT22;40800;52.704;6.398;2022-08-21T06:44:39;16.20;99.90
54898;DHT22;40800;52.704;6.398;2022-08-21T06:47:04;16.30;99.90
54898;DHT22;40800;52.704;6.398;2022-08-21T06:49:29;16.60;99.90
54898;DHT22;40800;52.704;6.398;2022-08-21T06:51:55;16.50;99.90
54898;DHT22;40800;52.704;6.398;2022-08-21T06:54:21;16.60;99.90
54898;DHT22;40800;52.704;6.398;2022-08-21T06:56:46;16.80;99.90
54898;DHT22;40800;52.704;6.398;2022-08-21T06:59:12;17.60;99.90
54898;DHT22;40800;52.704;6.398;2022-08-21T07:01:37;17.20;99.90
54898;DHT22;40800;52.704;6.398;2022-08-21T07:04:03;17.20;99.90
54898;DHT22;40800;52.704;6.398;2022-08-21T07:06:28;17.40;99.90
54898;DHT22;40800;52.704;6.398;2022-08-21T07:08:54;17.40;99.90
54898;DHT22;40800;52.704;6.398;2022-08-21T07:11:21;17.70;99.90
54898;DHT22;40800;52.704;6.398;2022-08-21T07:13:47;17.70;99.90
54898;DHT22;40800;52.704;6.398;2022-08-21T07:16:13;17.80;99.90
54898;DHT22;40800;52.704;6.398;2022-08-21T07:18:39;17.90;99.90
54898;DHT22;40800;52.704;6.398;2022-08-21T07:21:05;18.20;99.90
54898;DHT22;40800;52.704;6.398;2022-08-21T07:23:39;18.20;99.90
54898;DHT22;40800;52.704;6.398;2022-08-21T07:26:06;18.40;99.90
54898;DHT22;40800;52.704;6.398;2022-08-21T07:28:32;18.50;99.90
54898;DHT22;40800;52.704;6.398;2022-08-21T07:30:58;18.30;99.90
54898;DHT22;40800;52.704;6.398;2022-08-21T07:33:25;18.60;99.90
54898;DHT22;40800;52.704;6.398;2022-08-21T07:35:51;18.90;99.90
54898;DHT22;40800;52.704;6.398;2022-08-21T07:38:16;18.60;99.90
54898;DHT22;40800;52.704;6.398;2022-08-21T07:40:43;18.60;99.90
54898;DHT22;40800;52.704;6.398;2022-08-21T07:43:09;18.60;99.90
54898;DHT22;40800;52.704;6.398;2022-08-21T07:45:34;18.90;99.90
54898;DHT22;40800;52.704;6.398;2022-08-21T07:48:00;19.10;99.90
54898;DHT22;40800;52.704;6.398;2022-08-21T07:50:25;18.80;99.90
54898;DHT22;40800;52.704;6.398;2022-08-21T07:52:51;19.00;99.90
54898;DHT22;40800;52.704;6.398;2022-08-21T07:55:22;19.40;99.90
54898;DHT22;40800;52.704;6.398;2022-08-21T07:57:48;19.30;99.90
54898;DHT22;40800;52.704;6.398;2022-08-21T08:00:14;19.20;99.90
54898;DHT22;40800;52.704;6.398;2022-08-21T08:02:43;19.10;99.90
54898;DHT22;40800;52.704;6.398;2022-08-21T08:05:10;19.10;99.90
54898;DHT22;40800;52.704;6.398;2022-08-21T08:07:36;19.10;99.90
54898;DHT22;40800;52.704;6.398;2022-08-21T08:10:02;19.30;99.90
54898;DHT22;40800;52.704;6.398;2022-08-21T08:12:28;19.40;99.90
54898;DHT22;40800;52.704;6.398;2022-08-21T08:15:00;19.50;99.90
54898;DHT22;40800;52.704;6.398;2022-08-21T08:17:26;19.60;99.90
54898;DHT22;40800;52.704;6.398;2022-08-21T08:19:52;19.70;99.90
54898;DHT22;40800;52.704;6.398;2022-08-21T08:22:19;19.70;99.90
54898;DHT22;40800;52.704;6.398;2022-08-21T08:24:46;19.70;99.90
54898;DHT22;40800;52.704;6.398;2022-08-21T08:27:11;20.00;99.90
54898;DHT22;40800;52.704;6.398;2022-08-21T08:29:37;19.80;99.90
54898;DHT22;40800;52.704;6.398;2022-08-21T08:32:03;20.00;99.90
54898;DHT22;40800;52.704;6.398;2022-08-21T08:34:29;19.80;99.90
54898;DHT22;40800;52.704;6.398;2022-08-21T08:36:55;20.10;99.90
54898;DHT22;40800;52.704;6.398;2022-08-21T08:39:23;20.00;99.90
54898;DHT22;40800;52.704;6.398;2022-08-21T08:41:48;20.10;99.90
54898;DHT22;40800;52.704;6.398;2022-08-21T08:44:16;20.60;99.90
54898;DHT22;40800;52.704;6.398;2022-08-21T08:46:46;20.70;99.90
54898;DHT22;40800;52.704;6.398;2022-08-21T08:54:25;20.40;99.90
54898;DHT22;40800;52.704;6.398;2022-08-21T08:56:58;20.50;99.90
54898;DHT22;40800;52.704;6.398;2022-08-21T08:59:38;20.50;99.90
54898;DHT22;40800;52.704;6.398;2022-08-21T09:02:04;20.60;99.90
54898;DHT22;40800;52.704;6.398;2022-08-21T09:04:30;20.70;99.90
54898;DHT22;40800;52.704;6.398;2022-08-21T09:09:37;20.60;99.90
54898;DHT22;40800;52.704;6.398;2022-08-21T09:17:34;21.00;99.90
54898;DHT22;40800;52.704;6.398;2022-08-21T09:20:04;21.10;99.90
54898;DHT22;40800;52.704;6.398;2022-08-21T09:27:41;21.10;99.90
54898;DHT22;40800;52.704;6.398;2022-08-21T09:30:07;21.50;99.90
54898;DHT22;40800;52.704;6.398;2022-08-21T09:32:34;21.60;99.90
54898;DHT22;40800;52.704;6.398;2022-08-21T09:35:03;21.70;99.90
54898;DHT22;40800;52.704;6.398;2022-08-21T09:37:29;21.60;99.90
54898;DHT22;40800;52.704;6.398;2022-08-21T09:39:56;21.50;99.90
54898;DHT22;40800;52.704;6.398;2022-08-21T09:42:24;21.80;99.90
54898;DHT22;40800;52.704;6.398;2022-08-21T09:45:09;21.50;99.90
54898;DHT22;40800;52.704;6.398;2022-08-21T09:47:35;22.10;99.90
54898;DHT22;40800;52.704;6.398;2022-08-21T09:50:09;22.00;99.90
54898;DHT22;40800;52.704;6.398;2022-08-21T09:52:41;22.30;99.90
54898;DHT22;40800;52.704;6.398;2022-08-21T09:55:07;22.40;99.90
54898;DHT22;40800;52.704;6.398;2022-08-21T09:58:00;22.10;99.90
54898;DHT22;40800;52.704;6.398;2022-08-21T10:00:30;22.50;99.90
54898;DHT22;40800;52.704;6.398;2022-08-21T10:05:37;21.90;99.90
54898;DHT22;40800;52.704;6.398;2022-08-21T10:08:03;21.70;99.90
54898;DHT22;40800;52.704;6.398;2022-08-21T10:10:30;21.20;99.90
54898;DHT22;40800;52.704;6.398;2022-08-21T10:17:56;21.90;99.90
54898;DHT22;40800;52.704;6.398;2022-08-21T10:20:26;22.00;99.90
54898;DHT22;40800;52.704;6.398;2022-08-21T10:25:42;21.90;99.90
54898;DHT22;40800;52.704;6.398;2022-08-21T10:28:17;21.80;99.90
54898;DHT22;40800;52.704;6.398;2022-08-21T10:33:20;21.40;99.90
54898;DHT22;40800;52.704;6.398;2022-08-21T10:35:53;22.50;99.90
54898;DHT22;40800;52.704;6.398;2022-08-21T10:38:35;22.80;99.90
54898;DHT22;40800;52.704;6.398;2022-08-21T10:41:08;22.00;99.90
54898;DHT22;40800;52.704;6.398;2022-08-21T10:43:46;22.30;99.90
54898;DHT22;40800;52.704;6.398;2022-08-21T10:51:24;23.20;99.90
54898;DHT22;40800;52.704;6.398;2022-08-21T10:54:00;23.90;99.90
54898;DHT22;40800;52.704;6.398;2022-08-21T10:56:32;24.20;99.90
54898;DHT22;40800;52.704;6.398;2022-08-21T11:01:32;22.50;99.90
54898;DHT22;40800;52.704;6.398;2022-08-21T11:04:12;22.70;99.90
54898;DHT22;40800;52.704;6.398;2022-08-21T11:06:40;22.60;99.90
54898;DHT22;40800;52.704;6.398;2022-08-21T11:09:14;22.30;99.90
54898;DHT22;40800;52.704;6.398;2022-08-21T11:11:41;22.60;99.90
54898;DHT22;40800;52.704;6.398;2022-08-21T11:14:11;22.60;99.90
54898;DHT22;40800;52.704;6.398;2022-08-21T11:16:42;22.60;99.90
54898;DHT22;40800;52.704;6.398;2022-08-21T11:21:48;23.60;99.90
54898;DHT22;40800;52.704;6.398;2022-08-21T11:27:05;24.00;99.90
54898;DHT22;40800;52.704;6.398;2022-08-21T11:29:35;23.30;99.90
54898;DHT22;40800;52.704;6.398;2022-08-21T11:42:14;24.40;99.90
54898;DHT22;40800;52.704;6.398;2022-08-21T11:47:11;23.80;99.90
54898;DHT22;40800;52.704;6.398;2022-08-21T11:52:10;23.40;99.90
54898;DHT22;40800;52.704;6.398;2022-08-21T11:54:47;24.20;99.90
54898;DHT22;40800;52.704;6.398;2022-08-21T11:59:40;24.30;99.90
54898;DHT22;40800;52.704;6.398;2022-08-21T12:02:15;24.00;99.90
54898;DHT22;40800;52.704;6.398;2022-08-21T12:04:46;23.80;99.90
54898;DHT22;40800;52.704;6.398;2022-08-21T12:07:14;24.00;99.90
54898;DHT22;40800;52.704;6.398;2022-08-21T12:09:40;23.80;99.90
54898;DHT22;40800;52.704;6.398;2022-08-21T12:12:12;23.10;99.90
54898;DHT22;40800;52.704;6.398;2022-08-21T12:14:47;23.60;99.90
54898;DHT22;40800;52.704;6.398;2022-08-21T12:17:19;23.50;99.90
54898;DHT22;40800;52.704;6.398;2022-08-21T12:19:44;23.00;99.90
54898;DHT22;40800;52.704;6.398;2022-08-21T12:22:11;22.90;99.90
54898;DHT22;40800;52.704;6.398;2022-08-21T12:24:44;23.20;99.90
54898;DHT22;40800;52.704;6.398;2022-08-21T12:29:51;22.80;99.90
54898;DHT22;40800;52.704;6.398;2022-08-21T12:34:46;24.30;99.90
54898;DHT22;40800;52.704;6.398;2022-08-21T12:37:18;23.90;99.90
54898;DHT22;40800;52.704;6.398;2022-08-21T12:39:46;23.20;99.90
54898;DHT22;40800;52.704;6.398;2022-08-21T12:44:55;22.50;99.90
54898;DHT22;40800;52.704;6.398;2022-08-21T12:47:29;22.60;99.90
54898;DHT22;40800;52.704;6.398;2022-08-21T12:50:04;23.40;99.90
54898;DHT22;40800;52.704;6.398;2022-08-21T12:52:36;24.00;99.90
54898;DHT22;40800;52.704;6.398;2022-08-21T12:55:04;23.60;99.90
54898;DHT22;40800;52.704;6.398;2022-08-21T12:57:30;23.30;99.90
54898;DHT22;40800;52.704;6.398;2022-08-21T12:59:57;23.40;99.90
54898;DHT22;40800;52.704;6.398;2022-08-21T13:02:28;23.60;99.90
54898;DHT22;40800;52.704;6.398;2022-08-21T13:04:54;23.40;99.90
54898;DHT22;40800;52.704;6.398;2022-08-21T13:07:24;23.70;99.90
54898;DHT22;40800;52.704;6.398;2022-08-21T13:09:57;22.80;99.90
54898;DHT22;40800;52.704;6.398;2022-08-21T13:12:23;22.80;99.90
54898;DHT22;40800;52.704;6.398;2022-08-21T13:14:50;22.90;99.90
54898;DHT22;40800;52.704;6.398;2022-08-21T13:17:18;23.50;99.90
54898;DHT22;40800;52.704;6.398;2022-08-21T13:19:56;23.60;99.90
54898;DHT22;40800;52.704;6.398;2022-08-21T13:22:23;24.20;99.90
54898;DHT22;40800;52.704;6.398;2022-08-21T13:24:48;25.10;99.90
54898;DHT22;40800;52.704;6.398;2022-08-21T13:27:18;25.80;99.90
54898;DHT22;40800;52.704;6.398;2022-08-21T13:29:44;25.70;99.90
54898;DHT22;40800;52.704;6.398;2022-08-21T13:32:13;25.80;99.90
54898;DHT22;40800;52.704;6.398;2022-08-21T13:34:42;24.80;99.90
54898;DHT22;40800;52.704;6.398;2022-08-21T13:37:08;24.20;99.90
54898;DHT22;40800;52.704;6.398;2022-08-21T13:39:36;24.60;99.90
54898;DHT22;40800;52.704;6.398;2022-08-21T13:42:04;23.90;99.90
54898;DHT22;40800;52.704;6.398;2022-08-21T13:44:35;23.80;99.90
54898;DHT22;40800;52.704;6.398;2022-08-21T13:47:02;23.40;99.90
54898;DHT22;40800;52.704;6.398;2022-08-21T13:49:32;23.50;99.90
54898;DHT22;40800;52.704;6.398;2022-08-21T13:51:58;23.60;99.90
54898;DHT22;40800;52.704;6.398;2022-08-21T13:54:29;23.60;99.90
54898;DHT22;40800;52.704;6.398;2022-08-21T13:56:57;23.20;99.90
54898;DHT22;40800;52.704;6.398;2022-08-21T13:59:23;23.20;99.90
54898;DHT22;40800;52.704;6.398;2022-08-21T14:01:51;23.00;99.90
54898;DHT22;40800;52.704;6.398;2022-08-21T14:04:23;23.00;99.90
54898;DHT22;40800;52.704;6.398;2022-08-21T14:06:50;22.80;99.90
54898;DHT22;40800;52.704;6.398;2022-08-21T14:09:23;22.90;99.90
54898;DHT22;40800;52.704;6.398;2022-08-21T14:11:50;22.90;99.90
54898;DHT22;40800;52.704;6.398;2022-08-21T14:14:20;22.90;99.90
54898;DHT22;40800;52.704;6.398;2022-08-21T14:16:55;22.80;99.90
54898;DHT22;40800;52.704;6.398;2022-08-21T14:19:22;22.80;99.90
54898;DHT22;40800;52.704;6.398;2022-08-21T14:21:48;22.70;99.90
54898;DHT22;40800;52.704;6.398;2022-08-21T14:24:24;22.80;99.90
54898;DHT22;40800;52.704;6.398;2022-08-21T14:26:51;23.20;99.90
54898;DHT22;40800;52.704;6.398;2022-08-21T14:29:18;24.40;99.90
54898;DHT22;40800;52.704;6.398;2022-08-21T14:31:48;25.10;99.90
54898;DHT22;40800;52.704;6.398;2022-08-21T14:34:14;25.60;99.90
54898;DHT22;40800;52.704;6.398;2022-08-21T14:36:42;26.00;99.90
54898;DHT22;40800;52.704;6.398;2022-08-21T14:39:08;26.40;99.90
54898;DHT22;40800;52.704;6.398;2022-08-21T14:41:33;26.60;99.90
54898;DHT22;40800;52.704;6.398;2022-08-21T14:43:59;26.40;99.90
54898;DHT22;40800;52.704;6.398;2022-08-21T14:46:25;26.40;99.90
54898;DHT22;40800;52.704;6.398;2022-08-21T14:48:51;26.10;99.90
54898;DHT22;40800;52.704;6.398;2022-08-21T14:51:17;25.90;99.90
54898;DHT22;40800;52.704;6.398;2022-08-21T14:53:43;25.70;99.90
54898;DHT22;40800;52.704;6.398;2022-08-21T14:56:09;25.40;99.90
54898;DHT22;40800;52.704;6.398;2022-08-21T14:58:37;25.10;99.90
54898;DHT22;40800;52.704;6.398;2022-08-21T15:01:03;24.90;99.90
54898;DHT22;40800;52.704;6.398;2022-08-21T15:03:30;24.50;99.90
54898;DHT22;40800;52.704;6.398;2022-08-21T15:05:56;24.60;99.90
54898;DHT22;40800;52.704;6.398;2022-08-21T15:08:21;24.40;99.90
54898;DHT22;40800;52.704;6.398;2022-08-21T15:10:47;24.10;99.90
54898;DHT22;40800;52.704;6.398;2022-08-21T15:13:13;24.10;99.90
54898;DHT22;40800;52.704;6.398;2022-08-21T15:15:40;24.10;99.90
54898;DHT22;40800;52.704;6.398;2022-08-21T15:18:05;24.00;99.90
54898;DHT22;40800;52.704;6.398;2022-08-21T15:20:31;23.80;99.90
54898;DHT22;40800;52.704;6.398;2022-08-21T15:22:57;23.70;99.90
54898;DHT22;40800;52.704;6.398;2022-08-21T15:25:22;23.80;99.90
54898;DHT22;40800;52.704;6.398;2022-08-21T15:27:48;23.90;99.90
54898;DHT22;40800;52.704;6.398;2022-08-21T15:30:13;24.00;99.90
54898;DHT22;40800;52.704;6.398;2022-08-21T15:32:39;24.00;99.90
54898;DHT22;40800;52.704;6.398;2022-08-21T15:35:05;24.10;99.90
54898;DHT22;40800;52.704;6.398;2022-08-21T15:37:31;24.40;99.90
54898;DHT22;40800;52.704;6.398;2022-08-21T15:39:57;24.40;99.90
54898;DHT22;40800;52.704;6.398;2022-08-21T15:42:23;24.70;99.90
54898;DHT22;40800;52.704;6.398;2022-08-21T15:44:49;24.60;99.90
54898;DHT22;40800;52.704;6.398;2022-08-21T15:47:17;24.80;99.90
54898;DHT22;40800;52.704;6.398;2022-08-21T15:49:43;25.30;99.90
54898;DHT22;40800;52.704;6.398;2022-08-21T15:52:20;25.40;99.90
54898;DHT22;40800;52.704;6.398;2022-08-21T15:54:46;25.30;99.90
54898;DHT22;40800;52.704;6.398;2022-08-21T15:57:12;25.00;99.90
54898;DHT22;40800;52.704;6.398;2022-08-21T15:59:40;25.10;99.90
54898;DHT22;40800;52.704;6.398;2022-08-21T16:02:07;25.00;99.90
54898;DHT22;40800;52.704;6.398;2022-08-21T16:04:37;25.00;99.90
54898;DHT22;40800;52.704;6.398;2022-08-21T16:07:03;24.90;99.90
54898;DHT22;40800;52.704;6.398;2022-08-21T16:09:28;25.20;99.90
54898;DHT22;40800;52.704;6.398;2022-08-21T16:11:55;25.50;99.90
54898;DHT22;40800;52.704;6.398;2022-08-21T16:14:21;25.50;99.90
54898;DHT22;40800;52.704;6.398;2022-08-21T16:16:47;25.20;99.90
54898;DHT22;40800;52.704;6.398;2022-08-21T16:19:12;25.00;99.90
54898;DHT22;40800;52.704;6.398;2022-08-21T16:21:38;24.80;99.90
54898;DHT22;40800;52.704;6.398;2022-08-21T16:24:04;24.50;99.90
54898;DHT22;40800;52.704;6.398;2022-08-21T16:26:30;24.30;99.90
54898;DHT22;40800;52.704;6.398;2022-08-21T16:28:56;24.00;99.90
54898;DHT22;40800;52.704;6.398;2022-08-21T16:31:23;23.90;99.90
54898;DHT22;40800;52.704;6.398;2022-08-21T16:33:50;23.70;99.90
54898;DHT22;40800;52.704;6.398;2022-08-21T16:36:16;23.40;99.90
54898;DHT22;40800;52.704;6.398;2022-08-21T16:38:42;23.50;99.90
54898;DHT22;40800;52.704;6.398;2022-08-21T16:41:11;23.50;99.90